Time;durP1;ratioP1;P1;durP2;ratioP2;P2;SDS_P1;SDS_P2;PMS_P1;PMS_P2;Temp;Humidity;BMP_temperature;BMP_pressure;BME280_temperature;BME280_humidity;BME280_pressure;Samples;Min_cycle;Max_cycle;Signal;HPM_P1;HPM_P2
2021/07/21 07:19:16;;;;;;;16.77;10.50;;;640.60;2432.00;;;;;;5484363;24;20096;-74
2021/07/21 07:21:43;;;;;;;20.13;11.73;;;640.80;2432.00;;;;;;4841802;29;20037;-74
2021/07/21 07:24:09;;;;;;;15.55;10.77;;;640.80;2432.00;;;;;;4842975;29;20481;-74
2021/07/21 07:26:35;;;;;;;17.67;10.10;;;640.90;2432.00;;;;;;4839640;29;20065;-74
2021/07/21 07:29:02;;;;;;;16.35;11.73;;;665.80;2432.00;;;;;;4843268;29;20062;-74
2021/07/21 07:31:27;;;;;;;16.45;11.23;;;665.90;2432.00;;;;;;4842503;29;20037;-74
2021/07/21 07:33:53;;;;;;;18.98;11.73;;;666.10;2432.00;;;;;;4842288;29;20389;-74
2021/07/21 07:36:19;;;;;;;17.33;12.65;;;666.20;2432.00;;;;;;4831979;29;20053;-74
2021/07/21 07:38:45;;;;;;;15.63;11.23;;;666.20;2432.00;;;;;;4842505;29;20033;-74
2021/07/21 07:41:11;;;;;;;14.55;10.73;;;666.50;2432.00;;;;;;4840991;29;20042;-74
2021/07/21 07:43:38;;;;;;;18.83;11.02;;;666.20;2432.00;;;;;;4842002;29;20045;-74
2021/07/21 07:46:06;;;;;;;17.25;10.43;;;691.40;2432.00;;;;;;4838218;29;20542;-74
2021/07/21 07:48:33;;;;;;;18.98;12.35;;;691.70;2432.00;;;;;;4842444;29;20041;-75
2021/07/21 07:50:59;;;;;;;14.90;10.05;;;691.50;2432.00;;;;;;4842354;29;20134;-74
2021/07/21 07:53:24;;;;;;;14.18;10.55;;;691.80;2432.00;;;;;;4841665;29;20022;-74
2021/07/21 07:55:50;;;;;;;15.82;12.05;;;692.00;2432.00;;;;;;4842822;29;20489;-74
2021/07/21 07:58:16;;;;;;;16.58;11.63;;;691.80;2432.00;;;;;;4841699;29;20029;-74
2021/07/21 08:00:42;;;;;;;20.48;13.63;;;691.40;2432.00;;;;;;4841490;29;20069;-74
2021/07/21 08:03:07;;;;;;;17.02;12.65;;;691.50;2432.00;;;;;;4840367;29;20039;-74
2021/07/21 08:05:34;;;;;;;15.60;11.23;;;691.80;2432.00;;;;;;4839414;29;20026;-74
2021/07/21 08:08:02;;;;;;;14.68;10.68;;;691.70;2432.00;;;;;;4842365;29;20029;-75
2021/07/21 08:10:28;;;;;;;15.93;11.93;;;691.70;2432.00;;;;;;4839921;29;20026;-74
2021/07/21 08:12:54;;;;;;;16.83;11.27;;;691.40;2432.00;;;;;;4841329;29;20105;-74
2021/07/21 08:15:20;;;;;;;16.00;10.70;;;691.50;2432.00;;;;;;4839934;29;20156;-74
2021/07/21 08:17:46;;;;;;;13.95;10.98;;;691.80;2432.00;;;;;;4841723;29;20214;-75
2021/07/21 08:20:12;;;;;;;18.20;10.13;;;691.50;2432.00;;;;;;4840881;29;20046;-74
2021/07/21 08:22:41;;;;;;;18.83;13.48;;;691.50;2432.00;;;;;;4839409;29;20053;-74
2021/07/21 08:25:15;;;;;;;14.18;11.25;;;692.00;2432.00;;;;;;4839873;29;20030;-75
2021/07/21 08:27:41;;;;;;;13.73;10.68;;;716.90;2432.00;;;;;;4837829;29;20025;-74
2021/07/21 08:30:14;;;;;;;13.98;11.15;;;716.90;2432.00;;;;;;4838163;29;20033;-74
2021/07/21 08:32:47;;;;;;;16.88;11.82;;;717.30;2432.00;;;;;;4839431;29;20077;-74
2021/07/21 08:35:14;;;;;;;16.70;10.63;;;717.50;2432.00;;;;;;4841214;29;20030;-74
2021/07/21 08:37:41;;;;;;;16.00;12.18;;;742.40;2432.00;;;;;;4841785;29;20159;-75
2021/07/21 08:40:08;;;;;;;16.27;12.13;;;742.60;2432.00;;;;;;4841199;29;20290;-75
2021/07/21 08:42:35;;;;;;;16.88;11.52;;;742.50;2432.00;;;;;;4839635;29;20681;-77
2021/07/21 08:45:01;;;;;;;13.07;10.70;;;742.50;2432.00;;;;;;4839235;29;20120;-75
2021/07/21 08:47:27;;;;;;;15.27;11.13;;;742.40;2406.40;;;;;;4839602;29;20515;-74
2021/07/21 08:49:55;;;;;;;16.50;11.55;;;742.70;2380.80;;;;;;4840029;29;20037;-75
2021/07/21 08:52:21;;;;;;;16.70;11.93;;;742.50;2406.40;;;;;;4841577;29;20030;-75
2021/07/21 08:54:48;;;;;;;21.02;10.82;;;717.30;2432.00;;;;;;4841277;29;20493;-75
2021/07/21 08:57:16;;;;;;;19.77;11.85;;;717.70;2406.40;;;;;;4840050;29;20128;-75
2021/07/21 08:59:45;;;;;;;15.98;11.38;;;717.70;2355.20;;;;;;4840138;29;20026;-75
2021/07/21 09:02:13;;;;;;;19.50;13.30;;;717.50;2406.40;;;;;;4839283;29;20482;-76
2021/07/21 09:04:40;;;;;;;17.70;10.98;;;742.40;2406.40;;;;;;4840232;29;20030;-74
2021/07/21 09:07:07;;;;;;;16.98;11.82;;;742.90;2355.20;;;;;;4838267;29;20030;-74
2021/07/21 09:09:34;;;;;;;16.45;11.00;;;743.10;2355.20;;;;;;4840964;29;20026;-76
2021/07/21 09:12:00;;;;;;;15.10;11.85;;;768.00;2304.00;;;;;;4838847;29;20455;-73
2021/07/21 09:14:27;;;;;;;16.52;11.43;;;768.00;2329.60;;;;;;4841263;29;20434;-73
2021/07/21 09:17:13;;;;;;;14.02;10.68;;;743.20;2304.00;;;;;;4838462;29;20401;-74
2021/07/21 09:19:42;;;;;;;15.02;9.45;;;768.30;2252.80;;;;;;4838910;29;20060;-74
2021/07/21 09:22:25;;;;;;;14.65;10.80;;;768.10;2227.20;;;;;;4840882;29;20041;-73
2021/07/21 09:25:27;;;;;;;14.68;10.63;;;742.90;2304.00;;;;;;4837249;29;20034;-74
2021/07/21 09:27:55;;;;;;;16.42;11.00;;;742.70;2329.60;;;;;;4784874;30;20040;-73
2021/07/21 09:30:30;;;;;;;15.85;11.43;;;742.80;2329.60;;;;;;4767971;29;20048;-74
2021/07/21 09:33:04;;;;;;;21.77;11.48;;;742.70;2329.60;;;;;;4768487;30;20071;-74
2021/07/21 09:35:33;;;;;;;21.33;10.68;;;742.90;2329.60;;;;;;4770017;30;20097;-74
2021/07/21 09:38:01;;;;;;;18.35;10.65;;;768.50;2252.80;;;;;;4781579;30;20123;-74
2021/07/21 09:40:27;;;;;;;15.73;12.57;;;768.00;2278.40;;;;;;4768574;30;20499;-74
2021/07/21 09:42:54;;;;;;;15.70;10.65;;;742.60;2329.60;;;;;;4783757;30;20028;-73
2021/07/21 09:45:20;;;;;;;15.43;12.15;;;742.40;2355.20;;;;;;4769712;30;20525;-73
2021/07/21 09:47:55;;;;;;;23.38;13.07;;;742.90;2355.20;;;;;;4784433;30;20041;-74
2021/07/21 09:50:27;;;;;;;14.18;9.27;;;742.90;2329.60;;;;;;4768262;30;20059;-74
2021/07/21 09:53:12;;;;;;;17.52;10.93;;;742.90;2304.00;;;;;;4783084;30;20073;-74
2021/07/21 09:55:38;;;;;;;14.10;10.63;;;768.50;2252.80;;;;;;4782698;30;20039;-74
2021/07/21 09:58:12;;;;;;;12.02;9.32;;;794.10;2176.00;;;;;;4770582;30;20043;-74
2021/07/21 10:00:43;;;;;;;15.18;11.50;;;793.90;2124.80;;;;;;4768804;30;20047;-74
2021/07/21 10:03:18;;;;;;;12.57;10.05;;;793.70;2176.00;;;;;;4796014;29;20034;-74
2021/07/21 10:06:06;;;;;;;14.27;10.75;;;768.50;2176.00;;;;;;4838234;29;20044;-74
2021/07/21 10:08:45;;;;;;;14.73;10.45;;;768.00;2227.20;;;;;;4836278;29;20030;-74
2021/07/21 10:11:23;;;;;;;14.82;10.35;;;768.20;2201.60;;;;;;4838541;29;20053;-74
2021/07/21 10:13:50;;;;;;;14.40;9.25;;;768.50;2176.00;;;;;;4839637;29;20087;-73
2021/07/21 10:16:37;;;;;;;13.70;10.25;;;793.60;2176.00;;;;;;4838680;29;20065;-73
2021/07/21 10:19:10;;;;;;;13.63;10.45;;;768.60;2150.40;;;;;;4838547;29;20057;-74
2021/07/21 10:21:38;;;;;;;18.75;12.27;;;768.90;2099.20;;;;;;4834889;29;20034;-74
2021/07/21 10:24:05;;;;;;;14.95;10.82;;;768.90;2124.80;;;;;;4840383;29;20832;-74
2021/07/21 10:26:31;;;;;;;16.08;11.57;;;768.30;2150.40;;;;;;4839446;29;20162;-74
2021/07/21 10:28:59;;;;;;;15.15;9.73;;;768.40;2176.00;;;;;;4841848;29;20047;-74
2021/07/21 10:31:26;;;;;;;14.70;10.70;;;794.00;2124.80;;;;;;4842832;29;20046;-74
2021/07/21 10:33:52;;;;;;;12.90;9.77;;;819.30;2048.00;;;;;;4844120;29;20029;-74
2021/07/21 10:36:20;;;;;;;14.18;9.75;;;819.70;2022.40;;;;;;4841401;29;20113;-75
2021/07/21 10:38:46;;;;;;;17.08;10.50;;;820.10;1971.20;;;;;;4841800;29;20034;-74
2021/07/21 10:41:14;;;;;;;12.23;8.95;;;845.30;1920.00;;;;;;4843378;29;20033;-74
2021/07/21 10:44:02;;;;;;;17.27;10.68;;;845.30;1843.20;;;;;;4839249;29;20021;-74
2021/07/21 10:46:37;;;;;;;13.70;10.50;;;819.40;1971.20;;;;;;4841552;29;20030;-75
2021/07/21 10:49:13;;;;;;;13.83;10.53;;;794.40;1996.80;;;;;;4841241;29;20038;-74
2021/07/21 11:00:15;;;;;;;10.63;8.60;;;844.80;1894.40;;;;;;4842001;29;20045;-74
2021/07/21 11:02:42;;;;;;;12.88;10.43;;;819.40;1920.00;;;;;;4841764;29;20537;-74
2021/07/21 11:05:32;;;;;;;12.73;10.40;;;794.00;1920.00;;;;;;4840190;29;20098;-75
2021/07/21 11:08:00;;;;;;;12.60;10.05;;;768.80;1920.00;;;;;;4840816;29;20034;-74
2021/07/21 11:10:43;;;;;;;13.90;11.13;;;819.30;1868.80;;;;;;4840348;29;20038;-74
2021/07/21 11:13:12;;;;;;;16.02;10.90;;;819.90;1843.20;;;;;;4842452;29;20053;-74
2021/07/21 11:15:45;;;;;;;13.25;9.75;;;845.30;1817.60;;;;;;4841180;29;20420;-74
2021/07/21 11:18:26;;;;;;;12.90;10.20;;;819.70;1817.60;;;;;;4842012;29;20109;-74
2021/07/21 11:21:02;;;;;;;13.48;9.40;;;794.30;1868.80;;;;;;4840446;29;20049;-73
2021/07/21 11:23:51;;;;;;;13.45;9.82;;;819.20;1843.20;;;;;;4839072;29;20029;-74
2021/07/21 11:26:35;;;;;;;11.52;9.50;;;819.20;1843.20;;;;;;4841054;29;20065;-74
2021/07/21 11:29:25;;;;;;;13.45;9.13;;;845.00;1740.80;;;;;;4856932;29;20038;-74
2021/07/21 11:31:54;;;;;;;13.15;9.68;;;794.50;1817.60;;;;;;4840709;29;20030;-73
2021/07/21 11:34:30;;;;;;;12.15;10.00;;;819.70;1817.60;;;;;;4841841;29;20064;-72
2021/07/21 11:37:06;;;;;;;12.65;9.25;;;845.30;1740.80;;;;;;4841144;29;20055;-73
2021/07/21 11:39:50;;;;;;;14.98;9.95;;;819.60;1766.40;;;;;;4840901;29;20033;-72
2021/07/21 11:42:30;;;;;;;13.82;9.13;;;819.90;1766.40;;;;;;4841126;29;20030;-73
2021/07/21 11:45:02;;;;;;;12.65;9.57;;;845.50;1766.40;;;;;;4841019;29;20029;-73
2021/07/21 11:47:36;;;;;;;15.43;10.07;;;870.60;1740.80;;;;;;4841105;29;20392;-73
2021/07/21 11:50:17;;;;;;;13.88;9.15;;;871.10;1689.60;;;;;;4841045;29;20130;-73
2021/07/21 11:52:54;;;;;;;13.00;10.13;;;896.10;1612.80;;;;;;4839952;29;20121;-73
2021/07/21 11:55:25;;;;;;;11.77;9.48;;;896.80;1510.40;;;;;;4840568;29;20022;-73
2021/07/21 11:57:53;;;;;;;13.70;9.57;;;896.20;1587.20;;;;;;4840634;29;20030;-73
2021/07/21 12:00:20;;;;;;;13.43;9.00;;;870.60;1638.40;;;;;;4841794;29;20030;-73
2021/07/21 12:02:47;;;;;;;12.10;8.73;;;870.60;1664.00;;;;;;4841841;29;20664;-73
2021/07/21 12:05:14;;;;;;;10.63;9.30;;;871.20;1612.80;;;;;;4842115;29;20054;-74
2021/07/21 12:07:42;;;;;;;12.10;9.35;;;896.70;1536.00;;;;;;4841529;29;20022;-73
2021/07/21 12:10:16;;;;;;;12.48;10.05;;;896.60;1510.40;;;;;;4840884;29;20034;-73
2021/07/21 12:12:43;;;;;;;14.50;9.20;;;;;;;;;;4841709;29;20025;-73
2021/07/21 12:15:11;;;;;;;12.35;9.90;;;896.60;1510.40;;;;;;4841775;29;20062;-73
2021/07/21 12:17:37;;;;;;;14.02;8.82;;;896.30;1561.60;;;;;;4842919;29;20076;-78
2021/07/21 12:20:06;;;;;;;17.42;10.45;;;870.60;1612.80;;;;;;4840257;29;20042;-74
2021/07/21 12:22:34;;;;;;;12.18;9.63;;;896.30;1561.60;;;;;;4841167;29;20050;-74
2021/07/21 12:25:05;;;;;;;12.23;10.02;;;871.30;1536.00;;;;;;4840579;29;20946;-74
2021/07/21 12:27:37;;;;;;;10.70;9.52;;;845.30;1638.40;;;;;;4841192;29;20037;-75
2021/07/21 12:30:09;;;;;;;10.05;8.48;;;819.70;1689.60;;;;;;4840206;29;20034;-75
2021/07/21 12:32:35;;;;;;;13.98;10.38;;;794.30;1715.20;;;;;;4839518;29;20032;-75
2021/07/21 12:35:02;;;;;;;14.90;8.73;;;794.20;1715.20;;;;;;4841214;29;20067;-75
2021/07/21 12:37:30;;;;;;;15.82;9.13;;;819.90;1612.80;;;;;;4840610;29;20030;-74
2021/07/21 12:39:58;;;;;;;16.05;10.35;;;845.50;1587.20;;;;;;4842122;29;20351;-75
2021/07/21 12:42:26;;;;;;;12.18;8.60;;;870.50;1536.00;;;;;;4841758;29;20046;-75
2021/07/21 12:45:01;;;;;;;10.75;8.73;;;870.80;1510.40;;;;;;4841212;29;20090;-75
2021/07/21 12:47:33;;;;;;;11.32;7.80;;;845.70;1561.60;;;;;;4840179;29;20428;-75
2021/07/21 12:50:11;;;;;;;12.02;8.82;;;845.20;1561.60;;;;;;4839394;29;20414;-74
2021/07/21 12:52:42;;;;;;;12.75;8.43;;;845.40;1536.00;;;;;;4853964;29;20137;-75
2021/07/21 12:55:11;;;;;;;14.15;8.65;;;845.70;1561.60;;;;;;4841462;29;20112;-75
2021/07/21 12:57:39;;;;;;;10.27;7.82;;;871.00;1484.80;;;;;;4838647;29;20485;-80
2021/07/21 13:00:26;;;;;;;13.15;10.25;;;896.50;1433.60;;;;;;4840356;29;20086;-75
2021/07/21 13:02:56;;;;;;;11.70;8.88;;;871.20;1459.20;;;;;;4840845;29;20034;-75
2021/07/21 13:05:38;;;;;;;10.38;8.43;;;870.40;1510.40;;;;;;4840921;29;20026;-75
2021/07/21 13:08:18;;;;;;;13.32;8.25;;;844.80;1587.20;;;;;;4836681;29;20038;-74
2021/07/21 13:10:45;;;;;;;11.23;8.40;;;819.30;1587.20;;;;;;4852949;29;20503;-75
2021/07/21 13:13:29;;;;;;;11.98;8.57;;;793.80;1689.60;;;;;;4839745;29;20041;-74
2021/07/21 13:16:13;;;;;;;12.35;8.98;;;768.70;1664.00;;;;;;4844354;29;20082;-75
2021/07/21 13:18:40;;;;;;;11.38;8.27;;;768.40;1715.20;;;;;;4843768;29;20098;-76
2021/07/21 13:21:35;;;;;;;13.02;8.35;;;794.10;1664.00;;;;;;4844856;29;20458;-75
2021/07/21 13:24:13;;;;;;;8.80;7.38;;;820.10;1561.60;;;;;;4847026;29;20050;-74
2021/07/21 13:26:53;;;;;;;12.50;8.00;;;819.30;1612.80;;;;;;4844733;29;20037;-74
2021/07/21 13:29:20;;;;;;;13.02;9.07;;;793.90;1664.00;;;;;;4847357;29;20040;-74
2021/07/21 13:31:47;;;;;;;15.70;8.68;;;768.70;1664.00;;;;;;4846851;29;20503;-74
2021/07/21 13:34:30;;;;;;;11.63;8.32;;;794.10;1638.40;;;;;;4842775;29;20106;-74
2021/07/21 13:36:58;;;;;;;11.90;8.20;;;820.00;1587.20;;;;;;4847473;29;20478;-74
2021/07/21 13:39:24;;;;;;;9.70;7.70;;;845.60;1536.00;;;;;;4842554;29;20554;-74
2021/07/21 13:41:56;;;;;;;11.88;8.00;;;870.70;1510.40;;;;;;4841271;29;20401;-74
2021/07/21 13:44:27;;;;;;;9.82;7.90;;;871.10;1459.20;;;;;;4844130;29;20021;-74
2021/07/21 13:47:04;;;;;;;11.57;7.45;;;896.00;1433.60;;;;;;4844663;29;20040;-74
2021/07/21 13:49:30;;;;;;;11.05;7.35;;;896.20;1433.60;;;;;;4841728;29;20710;-75
2021/07/21 13:52:01;;;;;;;11.07;8.52;;;871.20;1433.60;;;;;;4844837;29;20049;-74
2021/07/21 13:54:32;;;;;;;11.00;8.07;;;896.10;1408.00;;;;;;4840219;29;20406;-75
2021/07/21 13:57:01;;;;;;;11.27;8.15;;;896.00;1408.00;;;;;;4844142;29;20086;-74
2021/07/21 13:59:27;;;;;;;8.60;7.22;;;871.10;1408.00;;;;;;4841104;29;20062;-74
2021/07/21 14:01:55;;;;;;;10.57;7.85;;;871.30;1408.00;;;;;;4842637;29;20041;-74
2021/07/21 14:04:22;;;;;;;7.90;6.85;;;871.10;1408.00;;;;;;4843233;29;20465;-74
2021/07/21 14:06:48;;;;;;;10.55;7.20;;;871.30;1408.00;;;;;;4853005;29;20018;-74
2021/07/21 14:09:15;;;;;;;9.98;7.75;;;871.30;1408.00;;;;;;4846554;29;20034;-74
2021/07/21 14:11:43;;;;;;;9.65;7.97;;;870.90;1408.00;;;;;;4847915;29;20105;-74
2021/07/21 14:14:09;;;;;;;10.65;7.15;;;870.60;1433.60;;;;;;4842248;29;20073;-74
2021/07/21 14:16:37;;;;;;;10.80;7.18;;;870.80;1408.00;;;;;;4844379;29;20034;-73
2021/07/21 14:19:04;;;;;;;9.98;7.90;;;870.90;1408.00;;;;;;4844165;29;20581;-74
2021/07/21 14:21:30;;;;;;;9.77;7.07;;;871.10;1408.00;;;;;;4842616;29;20045;-75
2021/07/21 14:23:57;;;;;;;15.48;7.63;;;845.30;1459.20;;;;;;4840644;29;20022;-73
2021/07/21 14:26:26;;;;;;;11.32;7.45;;;819.60;1484.80;;;;;;4838741;29;20034;-74
2021/07/21 14:28:53;;;;;;;11.98;7.70;;;794.50;1536.00;;;;;;4840852;29;20029;-73
2021/07/21 14:31:20;;;;;;;8.60;7.15;;;794.30;1561.60;;;;;;4840486;29;20385;-73
2021/07/21 14:33:46;;;;;;;10.63;7.60;;;794.10;1587.20;;;;;;4843308;29;20082;-73
2021/07/21 14:36:12;;;;;;;12.32;7.93;;;794.50;1536.00;;;;;;4843719;29;20049;-74
2021/07/21 14:38:40;;;;;;;11.63;7.57;;;844.80;1536.00;;;;;;4843799;29;20034;-74
2021/07/21 14:41:07;;;;;;;13.90;8.50;;;845.00;1484.80;;;;;;4843831;29;20090;-74
2021/07/21 14:43:35;;;;;;;10.93;8.00;;;845.40;1459.20;;;;;;4844068;29;20037;-74
2021/07/21 14:46:06;;;;;;;9.40;7.28;;;845.50;1459.20;;;;;;4844009;29;20075;-74
2021/07/21 14:48:35;;;;;;;9.90;7.18;;;845.50;1433.60;;;;;;4842760;29;20113;-74
2021/07/21 14:51:01;;;;;;;7.30;6.20;;;845.50;1433.60;;;;;;4842717;29;20565;-74
2021/07/21 14:53:27;;;;;;;9.75;6.88;;;845.30;1433.60;;;;;;4840852;29;20832;-73
2021/07/21 14:55:53;;;;;;;12.82;7.82;;;845.50;1433.60;;;;;;4842644;29;20109;-74
2021/07/21 14:58:18;;;;;;;8.52;6.80;;;870.60;1408.00;;;;;;4843888;29;20113;-73
2021/07/21 15:00:44;;;;;;;10.50;7.20;;;845.00;1459.20;;;;;;4843119;29;20086;-73
2021/07/21 15:03:12;;;;;;;8.88;6.43;;;845.00;1484.80;;;;;;4842298;29;20045;-74
2021/07/21 15:05:38;;;;;;;12.13;7.60;;;844.90;1484.80;;;;;;4842337;29;20034;-74
2021/07/21 15:08:04;;;;;;;10.07;6.80;;;845.20;1433.60;;;;;;4842280;29;20370;-73
2021/07/21 15:10:31;;;;;;;9.77;6.72;;;845.10;1433.60;;;;;;4843198;29;20029;-73
2021/07/21 15:12:59;;;;;;;13.98;6.78;;;845.20;1408.00;;;;;;4842611;29;20042;-73
2021/07/21 15:15:25;;;;;;;10.57;6.88;;;820.10;1433.60;;;;;;4840584;29;20034;-73
2021/07/21 15:17:51;;;;;;;10.35;6.55;;;820.10;1433.60;;;;;;4841067;29;20476;-73
2021/07/21 15:20:18;;;;;;;8.70;7.07;;;820.10;1408.00;;;;;;4838328;29;20066;-73
2021/07/21 15:22:45;;;;;;;11.43;6.90;;;844.90;1433.60;;;;;;4838692;29;20034;-73
2021/07/21 15:25:11;;;;;;;12.95;7.18;;;819.90;1408.00;;;;;;4840529;29;20090;-73
2021/07/21 15:27:37;;;;;;;9.60;7.63;;;819.40;1433.60;;;;;;4841424;29;20022;-73
2021/07/21 15:30:05;;;;;;;11.50;7.32;;;819.20;1459.20;;;;;;4843110;29;20029;-73
2021/07/21 15:32:31;;;;;;;9.90;7.28;;;794.30;1484.80;;;;;;4839547;29;20034;-74
2021/07/21 15:34:57;;;;;;;9.70;7.20;;;794.20;1510.40;;;;;;4841203;29;20038;-73
2021/07/21 15:37:23;;;;;;;15.93;8.65;;;793.80;1510.40;;;;;;4839648;29;20087;-72
2021/07/21 15:39:49;;;;;;;10.10;7.25;;;768.70;1510.40;;;;;;4841277;29;20494;-72
2021/07/21 15:42:17;;;;;;;9.45;7.03;;;768.50;1536.00;;;;;;4839408;29;20033;-72
2021/07/21 15:44:43;;;;;;;10.65;7.10;;;768.20;1561.60;;;;;;4854628;29;20065;-72
2021/07/21 15:47:09;;;;;;;8.88;6.45;;;768.10;1561.60;;;;;;4841849;29;20061;-72
2021/07/21 15:49:35;;;;;;;11.48;7.07;;;743.20;1561.60;;;;;;4841852;29;20022;-72
2021/07/21 15:52:01;;;;;;;8.70;6.15;;;742.90;1587.20;;;;;;4840260;29;20826;-73
2021/07/21 15:54:27;;;;;;;8.15;6.53;;;742.80;1587.20;;;;;;4842000;29;20037;-72
2021/07/21 15:56:59;;;;;;;12.63;7.60;;;742.70;1612.80;;;;;;4841204;29;20030;-73
2021/07/21 15:59:27;;;;;;;9.30;7.55;;;742.80;1612.80;;;;;;4839062;29;20038;-72
2021/07/21 16:01:54;;;;;;;10.23;6.68;;;743.10;1612.80;;;;;;4841244;29;20022;-72
2021/07/21 16:04:21;;;;;;;10.55;6.25;;;742.90;1612.80;;;;;;4840772;29;20054;-73
2021/07/21 16:06:46;;;;;;;9.75;7.18;;;742.70;1638.40;;;;;;4841015;29;20030;-73
2021/07/21 16:09:19;;;;;;;10.35;7.80;;;742.60;1638.40;;;;;;4840095;29;20037;-73
2021/07/21 16:11:45;;;;;;;11.15;6.55;;;742.40;1664.00;;;;;;4839570;29;20038;-72
2021/07/21 16:14:12;;;;;;;12.80;8.18;;;717.70;1664.00;;;;;;4835310;29;20030;-72
2021/07/21 16:16:38;;;;;;;11.18;6.78;;;717.40;1689.60;;;;;;4839585;29;20082;-72
2021/07/21 16:19:05;;;;;;;10.10;7.53;;;717.30;1715.20;;;;;;4841800;29;20049;-74
2021/07/21 16:21:31;;;;;;;8.95;6.78;;;717.30;1715.20;;;;;;4841009;29;20049;-74
2021/07/21 16:23:57;;;;;;;9.10;6.40;;;717.30;1715.20;;;;;;4842266;29;20240;-73
2021/07/21 16:26:24;;;;;;;9.90;6.60;;;717.30;1715.20;;;;;;4841270;29;20065;-73
2021/07/21 16:28:50;;;;;;;10.20;6.88;;;717.40;1715.20;;;;;;4842003;29;20026;-73
2021/07/21 16:31:17;;;;;;;10.48;7.18;;;717.50;1740.80;;;;;;4841946;29;20398;-74
2021/07/21 16:33:43;;;;;;;8.52;5.22;;;717.50;1766.40;;;;;;4842241;29;20030;-73
2021/07/21 16:36:09;;;;;;;7.53;6.15;;;717.50;1766.40;;;;;;4842294;29;20030;-73
2021/07/21 16:38:35;;;;;;;9.25;6.93;;;717.50;1792.00;;;;;;4840388;29;20036;-73
2021/07/21 16:41:00;;;;;;;11.00;6.05;;;717.50;1792.00;;;;;;4841715;29;20042;-73
2021/07/21 16:43:26;;;;;;;13.52;7.07;;;717.40;1792.00;;;;;;4840536;29;20060;-73
2021/07/21 16:45:52;;;;;;;11.02;8.30;;;717.40;1792.00;;;;;;4841068;29;20165;-72
2021/07/21 16:48:18;;;;;;;10.15;6.82;;;717.40;1817.60;;;;;;4836978;29;20118;-73
2021/07/21 16:50:43;;;;;;;9.07;6.78;;;717.60;1817.60;;;;;;4841869;29;20366;-73
2021/07/21 16:53:09;;;;;;;11.13;6.25;;;717.70;1792.00;;;;;;4841675;29;20374;-74
2021/07/21 16:55:35;;;;;;;11.20;6.75;;;742.50;1817.60;;;;;;4840881;29;20065;-73
2021/07/21 16:58:01;;;;;;;10.93;6.68;;;742.60;1817.60;;;;;;4838989;29;20030;-74
2021/07/21 17:00:36;;;;;;;7.85;5.82;;;742.60;1817.60;;;;;;4838080;29;20073;-73
2021/07/21 17:03:03;;;;;;;8.25;6.38;;;742.60;1792.00;;;;;;4838828;29;20050;-72
2021/07/21 17:05:30;;;;;;;9.43;6.78;;;742.40;1792.00;;;;;;4839554;29;20073;-71
2021/07/21 17:07:57;;;;;;;10.98;6.63;;;742.40;1792.00;;;;;;4830463;29;20018;-72
2021/07/21 17:10:23;;;;;;;7.78;6.30;;;717.60;1792.00;;;;;;4838957;29;20105;-72
2021/07/21 17:12:49;;;;;;;8.75;7.13;;;717.50;1766.40;;;;;;4839435;29;20053;-72
2021/07/21 17:15:17;;;;;;;8.00;6.25;;;717.30;1792.00;;;;;;4829708;29;20030;-72
2021/07/21 17:17:44;;;;;;;11.27;7.10;;;717.10;1792.00;;;;;;4839021;29;20069;-73
2021/07/21 17:20:23;;;;;;;9.43;6.75;;;717.00;1792.00;;;;;;4841224;29;20114;-76
2021/07/21 17:22:50;;;;;;;10.35;7.03;;;716.90;1817.60;;;;;;4840394;29;20037;-74
2021/07/21 17:25:16;;;;;;;10.25;7.07;;;716.80;1843.20;;;;;;4840576;29;20026;-75
2021/07/21 17:27:42;;;;;;;8.05;6.28;;;716.80;1843.20;;;;;;4840286;29;20026;-73
2021/07/21 17:30:11;;;;;;;8.18;6.35;;;691.90;1843.20;;;;;;4841737;29;20046;-75
2021/07/21 17:32:38;;;;;;;9.13;6.65;;;691.80;1843.20;;;;;;4840452;29;20033;-74
2021/07/21 17:35:05;;;;;;;9.25;6.55;;;691.80;1868.80;;;;;;4841483;29;20493;-74
2021/07/21 17:37:32;;;;;;;10.75;6.35;;;691.70;1868.80;;;;;;4840430;29;20085;-74
2021/07/21 17:39:58;;;;;;;8.52;6.47;;;691.70;1868.80;;;;;;4840838;29;20041;-73
2021/07/21 17:42:24;;;;;;;13.63;6.95;;;691.70;1894.40;;;;;;4838022;29;20058;-74
2021/07/21 17:44:50;;;;;;;13.85;7.18;;;691.60;1894.40;;;;;;4834647;29;20482;-74
2021/07/21 17:47:15;;;;;;;10.65;6.60;;;691.60;1894.40;;;;;;4840928;29;20081;-74
2021/07/21 17:49:43;;;;;;;8.82;6.40;;;691.50;1894.40;;;;;;4841281;29;20436;-75
2021/07/21 17:52:09;;;;;;;11.20;6.72;;;691.50;1894.40;;;;;;4829448;29;20041;-74
2021/07/21 17:54:34;;;;;;;10.00;7.47;;;691.40;1920.00;;;;;;4838779;29;20486;-74
2021/07/21 17:57:00;;;;;;;12.65;8.15;;;691.40;1920.00;;;;;;4840895;29;20086;-74
2021/07/21 17:59:26;;;;;;;11.43;8.30;;;691.30;1945.60;;;;;;4837370;29;20072;-74
2021/07/21 18:01:51;;;;;;;14.57;10.02;;;691.20;1971.20;;;;;;4840669;29;20034;-74
2021/07/21 18:04:18;;;;;;;14.90;13.20;;;691.20;1971.20;;;;;;4840051;29;20081;-75
2021/07/21 18:06:44;;;;;;;12.18;8.07;;;666.50;1996.80;;;;;;4840746;29;20083;-74
2021/07/21 18:09:11;;;;;;;12.10;8.30;;;666.40;2022.40;;;;;;4840795;29;20042;-73
2021/07/21 18:11:37;;;;;;;8.40;6.75;;;666.30;2022.40;;;;;;4836935;29;20034;-73
2021/07/21 18:14:03;;;;;;;12.05;6.57;;;666.20;2022.40;;;;;;4840727;29;20026;-73
2021/07/21 18:16:28;;;;;;;17.00;13.88;;;666.20;2048.00;;;;;;4839299;29;20032;-73
2021/07/21 18:18:54;;;;;;;12.57;10.23;;;666.00;2073.60;;;;;;4836999;29;20442;-75
2021/07/21 18:21:20;;;;;;;9.05;6.63;;;665.90;2099.20;;;;;;4835983;29;20053;-73
2021/07/21 18:23:47;;;;;;;16.25;12.48;;;665.80;2124.80;;;;;;4840375;29;20122;-73
2021/07/21 18:26:13;;;;;;;8.68;6.65;;;665.80;2150.40;;;;;;4837912;29;20385;-73
2021/07/21 18:28:39;;;;;;;11.23;9.35;;;665.70;2176.00;;;;;;4838779;29;20085;-73
2021/07/21 18:31:05;;;;;;;9.07;5.88;;;665.60;2201.60;;;;;;4840634;29;20481;-72
2021/07/21 18:33:32;;;;;;;7.63;5.20;;;640.90;2201.60;;;;;;4840662;29;20033;-73
2021/07/21 18:35:58;;;;;;;5.45;3.63;;;640.80;2227.20;;;;;;4839771;29;20038;-73
2021/07/21 18:38:25;;;;;;;10.25;4.22;;;640.70;2227.20;;;;;;4840437;29;20093;-73
2021/07/21 18:40:51;;;;;;;10.23;4.55;;;640.60;2252.80;;;;;;4837342;29;20037;-73
2021/07/21 18:43:18;;;;;;;7.53;5.20;;;640.60;2304.00;;;;;;4840979;29;20029;-73
2021/07/21 18:45:44;;;;;;;11.68;5.00;;;640.50;2329.60;;;;;;4829177;29;20030;-73
2021/07/21 18:48:10;;;;;;;8.20;5.10;;;640.40;2355.20;;;;;;4831846;29;20026;-74
2021/07/21 18:50:36;;;;;;;7.03;4.78;;;640.40;2406.40;;;;;;4838009;29;20029;-73
2021/07/21 18:53:01;;;;;;;6.22;4.95;;;640.20;2432.00;;;;;;4826926;29;20091;-73
2021/07/21 18:55:27;;;;;;;7.45;5.35;;;640.20;2432.00;;;;;;4838133;29;20049;-73
2021/07/21 18:57:53;;;;;;;7.78;5.07;;;640.10;2432.00;;;;;;4844015;29;20418;-73
2021/07/21 19:00:19;;;;;;;8.57;5.78;;;640.10;2432.00;;;;;;4835852;29;20035;-73
2021/07/21 19:02:44;;;;;;;9.82;5.95;;;640.10;2432.00;;;;;;4831305;29;20030;-73
2021/07/21 19:05:12;;;;;;;9.45;5.20;;;640.00;2432.00;;;;;;4842647;29;20036;-73
2021/07/21 19:07:38;;;;;;;11.45;6.00;;;640.00;2432.00;;;;;;4841657;29;20450;-73
2021/07/21 19:10:06;;;;;;;6.70;4.88;;;640.00;2432.00;;;;;;4842466;29;20086;-73
2021/07/21 19:12:32;;;;;;;7.25;4.35;;;640.00;2432.00;;;;;;4842052;29;20379;-73
2021/07/21 19:14:57;;;;;;;8.18;4.95;;;640.10;2432.00;;;;;;4839933;29;20052;-73
2021/07/21 19:17:24;;;;;;;7.55;4.65;;;640.10;2432.00;;;;;;4843499;29;20032;-73
2021/07/21 19:19:50;;;;;;;7.50;5.72;;;640.10;2432.00;;;;;;4843584;29;20053;-73
2021/07/21 19:22:15;;;;;;;8.82;4.50;;;640.00;2432.00;;;;;;4837326;29;20038;-73
2021/07/21 19:24:42;;;;;;;11.23;5.40;;;640.00;2432.00;;;;;;4841759;29;20022;-73
2021/07/21 19:27:10;;;;;;;8.77;4.45;;;640.00;2432.00;;;;;;4841568;29;20061;-73
2021/07/21 19:29:39;;;;;;;6.03;4.38;;;640.00;2432.00;;;;;;4842463;29;20034;-73
2021/07/21 19:32:06;;;;;;;8.45;4.47;;;615.30;2432.00;;;;;;4843381;29;20366;-73
2021/07/21 19:34:32;;;;;;;6.20;4.28;;;615.30;2432.00;;;;;;4843836;29;20059;-75
2021/07/21 19:36:58;;;;;;;6.13;3.97;;;615.20;2432.00;;;;;;4843358;29;20044;-73
2021/07/21 19:39:24;;;;;;;7.57;4.32;;;615.20;2432.00;;;;;;4843424;29;20026;-73
2021/07/21 19:41:50;;;;;;;7.75;5.05;;;615.10;2432.00;;;;;;4842157;29;20040;-73
2021/07/21 19:44:16;;;;;;;7.82;5.22;;;615.10;2432.00;;;;;;4842961;29;20022;-73